Time;durP1;ratioP1;P1;durP2;ratioP2;P2;SDS_P1;SDS_P2;PMS_P1;PMS_P2;Temp;Humidity;BMP_temperature;BMP_pressure;BME280_temperature;BME280_humidity;BME280_pressure;Samples;Min_cycle;Max_cycle;Signal;HPM_P1;HPM_P2
2022/12/11 00:00:14;;;;;;;66.35;17.55;;;;;;;;;;1628943;86;20941;-85
2022/12/11 00:02:39;;;;;;;72.12;17.85;;;;;;;;;;1632744;87;21047;-84
2022/12/11 00:05:04;;;;;;;63.10;17.32;;;;;;;;;;1612838;87;20980;-85
2022/12/11 00:07:30;;;;;;;61.53;17.48;;;;;;;;;;1605821;87;21692;-86
2022/12/11 00:09:55;;;;;;;64.12;18.55;;;;;;;;;;1624053;88;21468;-85
2022/12/11 00:12:21;;;;;;;51.98;16.85;;;;;;;;;;1628997;86;21421;-86
2022/12/11 00:14:46;;;;;;;65.15;18.60;;;;;;;;;;1618937;86;20953;-85
2022/12/11 00:17:12;;;;;;;65.40;16.17;;;;;;;;;;1621863;86;20947;-86
2022/12/11 00:19:37;;;;;;;50.83;16.90;;;;;;;;;;1649136;84;20924;-85
2022/12/11 00:22:03;;;;;;;61.85;17.07;;;;;;;;;;1657182;85;21461;-84
2022/12/11 00:24:28;;;;;;;61.95;18.12;;;;;;;;;;1657770;85;21664;-85
2022/12/11 00:26:54;;;;;;;60.40;16.52;;;;;;;;;;1646884;86;20928;-86
2022/12/11 00:29:19;;;;;;;54.45;16.57;;;;;;;;;;1656363;86;20972;-86
2022/12/11 00:31:45;;;;;;;70.60;18.02;;;;;;;;;;1657145;85;20981;-85
2022/12/11 00:34:10;;;;;;;53.75;16.27;;;;;;;;;;1658327;85;21651;-86
2022/12/11 00:36:36;;;;;;;62.70;17.10;;;;;;;;;;1636532;85;21000;-85
2022/12/11 00:39:03;;;;;;;69.82;17.50;;;;;;;;;;1635111;85;20873;-85
2022/12/11 00:41:28;;;;;;;60.12;16.55;;;;;;;;;;1643668;86;21409;-84
2022/12/11 00:43:53;;;;;;;63.98;17.07;;;;;;;;;;1652819;86;20988;-85
2022/12/11 00:46:19;;;;;;;72.12;17.45;;;;;;;;;;1657348;85;20924;-85
2022/12/11 00:48:45;;;;;;;59.67;17.07;;;;;;;;;;1704588;79;20856;-85
2022/12/11 00:51:11;;;;;;;63.23;16.97;;;;;;;;;;1751033;80;20866;-85
2022/12/11 00:53:37;;;;;;;60.25;16.95;;;;;;;;;;1758968;80;21055;-85
2022/12/11 00:56:04;;;;;;;67.08;16.82;;;;;;;;;;1743327;79;21834;-84
2022/12/11 00:58:30;;;;;;;67.90;18.60;;;;;;;;;;1748211;80;21145;-85
2022/12/11 01:00:57;;;;;;;63.55;17.77;;;;;;;;;;1746538;79;21429;-84
2022/12/11 01:03:22;;;;;;;76.28;18.17;;;;;;;;;;1752125;80;21463;-85
2022/12/11 01:05:52;;;;;;;69.47;17.20;;;;;;;;;;1739350;80;20909;-85
2022/12/11 01:08:17;;;;;;;53.42;16.70;;;;;;;;;;1742053;82;21682;-86
2022/12/11 01:10:43;;;;;;;57.78;16.57;;;;;;;;;;1759353;79;20910;-85
2022/12/11 01:13:09;;;;;;;70.05;17.45;;;;;;;;;;1748533;80;20916;-86
2022/12/11 01:15:39;;;;;;;59.42;15.88;;;;;;;;;;1749791;78;21514;-85
2022/12/11 01:18:04;;;;;;;62.80;16.17;;;;;;;;;;1777713;80;21030;-86
2022/12/11 01:20:29;;;;;;;68.47;16.48;;;;;;;;;;1786151;80;21369;-85
2022/12/11 01:22:56;;;;;;;64.50;16.77;;;;;;;;;;1758768;80;21333;-85
2022/12/11 01:25:22;;;;;;;58.08;15.50;;;;;;;;;;1739228;81;21034;-86
2022/12/11 01:27:51;;;;;;;47.08;15.28;;;;;;;;;;1739425;81;20897;-86
2022/12/11 01:30:17;;;;;;;52.08;14.28;;;;;;;;;;1758416;80;21042;-86
2022/12/11 01:32:43;;;;;;;52.27;14.53;;;;;;;;;;1765304;79;21631;-86
2022/12/11 01:35:09;;;;;;;46.35;13.95;;;;;;;;;;1749284;80;20908;-86
2022/12/11 01:37:35;;;;;;;47.73;13.53;;;;;;;;;;1756865;78;21022;-85
2022/12/11 01:40:01;;;;;;;52.38;13.60;;;;;;;;;;1756291;78;20951;-86
2022/12/11 01:42:28;;;;;;;44.50;13.65;;;;;;;;;;1755251;79;21524;-86
2022/12/11 01:45:12;;;;;;;58.02;13.35;;;;;;;;;;1769463;79;21696;-86
2022/12/11 01:47:38;;;;;;;43.75;15.03;;;;;;;;;;1747682;79;21473;-86
2022/12/11 01:50:03;;;;;;;37.48;13.55;;;;;;;;;;1740153;81;20981;-85
2022/12/11 01:52:29;;;;;;;42.98;13.70;;;;;;;;;;1743277;80;21046;-85
2022/12/11 01:54:55;;;;;;;47.65;14.38;;;;;;;;;;1739401;81;21430;-85
2022/12/11 01:57:20;;;;;;;51.83;12.82;;;;;;;;;;1740405;81;20909;-85
2022/12/11 01:59:46;;;;;;;44.67;12.35;;;;;;;;;;1743169;80;20915;-85
2022/12/11 02:02:13;;;;;;;40.67;12.58;;;;;;;;;;1784411;79;20947;-86
2022/12/11 02:04:40;;;;;;;40.23;13.35;;;;;;;;;;1767401;79;21480;-85
2022/12/11 02:07:06;;;;;;;39.80;12.25;;;;;;;;;;1756304;80;20953;-85
2022/12/11 02:12:39;;;;;;;37.50;12.43;;;;;;;;;;1772750;78;21012;-85
2022/12/11 02:15:18;;;;;;;34.70;12.25;;;;;;;;;;1737529;80;21003;-85
2022/12/11 02:17:45;;;;;;;34.90;11.30;;;;;;;;;;1744555;81;21063;-85
2022/12/11 02:20:29;;;;;;;34.15;11.28;;;;;;;;;;1746861;82;21118;-86
2022/12/11 02:22:59;;;;;;;38.45;11.85;;;;;;;;;;1737826;81;21543;-85
2022/12/11 02:25:27;;;;;;;36.85;11.60;;;;;;;;;;1738202;80;20995;-85
2022/12/11 02:28:12;;;;;;;36.50;11.80;;;;;;;;;;1715557;82;21066;-85
2022/12/11 02:30:38;;;;;;;27.58;11.05;;;;;;;;;;1726141;82;21287;-85
2022/12/11 02:33:05;;;;;;;31.33;11.48;;;;;;;;;;1721163;82;20975;-85
2022/12/11 02:35:35;;;;;;;38.02;11.40;;;;;;;;;;1727926;82;21654;-85
2022/12/11 02:38:11;;;;;;;30.62;11.12;;;;;;;;;;1738898;80;21051;-85
2022/12/11 02:40:38;;;;;;;30.12;10.55;;;;;;;;;;1746158;81;21009;-85
2022/12/11 02:43:06;;;;;;;27.15;10.40;;;;;;;;;;1727239;82;21875;-85
2022/12/11 02:45:32;;;;;;;29.30;11.15;;;;;;;;;;1730953;82;21510;-85
2022/12/11 02:48:00;;;;;;;38.33;11.75;;;;;;;;;;1722944;81;21727;-85
2022/12/11 02:50:26;;;;;;;34.78;11.30;;;;;;;;;;1716556;82;20889;-85
2022/12/11 02:52:53;;;;;;;37.78;11.25;;;;;;;;;;1722073;82;20960;-85
2022/12/11 02:55:19;;;;;;;36.38;11.83;;;;;;;;;;1726173;82;21038;-85
2022/12/11 03:00:47;;;;;;;31.05;11.75;;;;;;;;;;1737963;81;21670;-85
2022/12/11 03:03:13;;;;;;;33.42;11.73;;;;;;;;;;1748007;81;21143;-86
2022/12/11 03:05:39;;;;;;;39.33;11.35;;;;;;;;;;1754938;80;20924;-85
2022/12/11 03:08:04;;;;;;;38.60;11.95;;;;;;;;;;1725772;82;20893;-85
2022/12/11 03:10:30;;;;;;;42.10;12.55;;;;;;;;;;1733372;81;21028;-85
2022/12/11 03:12:56;;;;;;;37.17;12.47;;;;;;;;;;1777174;78;20904;-85
2022/12/11 03:15:24;;;;;;;42.53;12.80;;;;;;;;;;1745029;80;20988;-86
2022/12/11 03:17:51;;;;;;;37.88;12.03;;;;;;;;;;1739495;80;21420;-86
2022/12/11 03:20:18;;;;;;;44.05;12.88;;;;;;;;;;1742793;80;21435;-86
2022/12/11 03:23:03;;;;;;;39.92;13.13;;;;;;;;;;1744589;80;21465;-86
2022/12/11 03:25:30;;;;;;;42.25;13.85;;;;;;;;;;1755885;79;21849;-86
2022/12/11 03:27:57;;;;;;;52.15;15.20;;;;;;;;;;1761173;79;20988;-86
2022/12/11 03:33:27;;;;;;;49.53;16.48;;;;;;;;;;1769101;79;20956;-85
2022/12/11 03:35:55;;;;;;;60.60;17.12;;;;;;;;;;1749312;80;21490;-86
2022/12/11 03:38:22;;;;;;;64.95;18.07;;;;;;;;;;1730595;82;22480;-86
2022/12/11 03:40:50;;;;;;;317.13;84.67;;;;;;;;;;1725568;82;21354;-86
2022/12/11 03:43:16;;;;;;;211.00;60.92;;;;;;;;;;1728196;82;20960;-86
2022/12/11 03:45:42;;;;;;;262.82;87.15;;;;;;;;;;1724741;82;21043;-86
2022/12/11 03:48:08;;;;;;;201.77;74.72;;;;;;;;;;1721170;82;21075;-86
2022/12/11 03:50:34;;;;;;;72.00;23.98;;;;;;;;;;1725826;82;22468;-86
2022/12/11 03:53:00;;;;;;;78.25;31.35;;;;;;;;;;1725006;82;21716;-85
2022/12/11 03:55:27;;;;;;;65.47;23.57;;;;;;;;;;1723076;82;21126;-86
2022/12/11 03:57:52;;;;;;;53.75;17.30;;;;;;;;;;1719208;82;21083;-85
2022/12/11 04:00:19;;;;;;;86.82;29.30;;;;;;;;;;1717123;82;20929;-86
2022/12/11 04:03:11;;;;;;;71.05;28.07;;;;;;;;;;1721629;82;21711;-86
2022/12/11 04:05:12;;;;;;;62.05;19.70;;;;;;;;;;1714454;82;21156;-86
2022/12/11 04:07:37;;;;;;;71.28;25.50;;;;;;;;;;1715659;82;21034;-86
2022/12/11 04:10:03;;;;;;;61.83;17.65;;;;;;;;;;1723106;82;20964;-86
2022/12/11 04:12:29;;;;;;;76.33;25.48;;;;;;;;;;1681461;83;21977;-86
2022/12/11 04:15:01;;;;;;;60.30;22.20;;;;;;;;;;1672252;85;21752;-86
2022/12/11 04:25:39;;;;;;;76.50;20.05;;;;;;;;;;1735611;81;20979;-84
2022/12/11 04:28:05;;;;;;;64.07;18.77;;;;;;;;;;1738432;82;20955;-85
2022/12/11 04:30:30;;;;;;;62.93;20.17;;;;;;;;;;1693498;83;20908;-85
2022/12/11 04:32:56;;;;;;;67.85;19.95;;;;;;;;;;1701335;81;21054;-85
2022/12/11 04:35:21;;;;;;;58.65;19.75;;;;;;;;;;1699778;83;20925;-85
2022/12/11 04:37:47;;;;;;;60.73;17.10;;;;;;;;;;1698954;81;20912;-85
2022/12/11 04:40:14;;;;;;;59.88;18.42;;;;;;;;;;1707656;81;22529;-85
2022/12/11 04:42:39;;;;;;;69.07;19.60;;;;;;;;;;1706790;83;21112;-85
2022/12/11 04:45:06;;;;;;;64.45;19.20;;;;;;;;;;1746127;81;21449;-85
2022/12/11 04:50:23;;;;;;;69.60;18.98;;;;;;;;;;1762550;79;21040;-86
2022/12/11 04:52:49;;;;;;;111.70;26.15;;;;;;;;;;1758569;80;20901;-85
2022/12/11 04:55:14;;;;;;;81.87;22.17;;;;;;;;;;1775876;80;20916;-85
2022/12/11 04:57:39;;;;;;;65.65;19.00;;;;;;;;;;1776628;80;20931;-85
2022/12/11 05:00:07;;;;;;;66.40;18.57;;;;;;;;;;1781973;80;20865;-85
2022/12/11 05:05:35;;;;;;;66.35;17.05;;;;;;;;;;1782082;80;21054;-85
2022/12/11 05:08:01;;;;;;;50.88;16.20;;;;;;;;;;1768333;80;20905;-85
2022/12/11 05:10:26;;;;;;;47.48;15.80;;;;;;;;;;1771390;80;20888;-85
2022/12/11 05:12:52;;;;;;;52.20;16.48;;;;;;;;;;1785594;79;20943;-85
2022/12/11 05:15:17;;;;;;;53.45;16.15;;;;;;;;;;1782753;80;21646;-85
2022/12/11 05:17:43;;;;;;;62.20;18.02;;;;;;;;;;1785894;80;21637;-85
2022/12/11 05:20:09;;;;;;;56.25;17.02;;;;;;;;;;1695380;83;21754;-85
2022/12/11 05:22:35;;;;;;;67.72;19.02;;;;;;;;;;1702355;83;21134;-85
2022/12/11 05:25:00;;;;;;;79.15;20.35;;;;;;;;;;1697632;83;20898;-85
2022/12/11 05:27:26;;;;;;;66.95;19.40;;;;;;;;;;1701752;83;20972;-85
2022/12/11 05:29:51;;;;;;;77.27;20.75;;;;;;;;;;1694878;82;22349;-85
2022/12/11 05:32:17;;;;;;;54.83;17.82;;;;;;;;;;1693061;83;20937;-85
2022/12/11 05:34:42;;;;;;;71.15;20.20;;;;;;;;;;1699482;84;20961;-85
2022/12/11 05:37:08;;;;;;;80.45;20.32;;;;;;;;;;1695804;82;21005;-85
2022/12/11 05:39:34;;;;;;;73.17;19.98;;;;;;;;;;1690930;84;21088;-85
2022/12/11 05:41:59;;;;;;;94.50;24.80;;;;;;;;;;1694255;83;20898;-85
2022/12/11 05:44:25;;;;;;;84.55;23.15;;;;;;;;;;1719173;80;21408;-85
2022/12/11 05:46:51;;;;;;;106.35;26.45;;;;;;;;;;1724031;81;21001;-85
2022/12/11 05:49:17;;;;;;;91.12;26.12;;;;;;;;;;1765382;80;21121;-85
2022/12/11 05:51:42;;;;;;;95.45;26.10;;;;;;;;;;1757212;81;20976;-85
2022/12/11 05:54:08;;;;;;;82.15;24.07;;;;;;;;;;1765595;78;21782;-85
2022/12/11 05:56:34;;;;;;;80.55;23.22;;;;;;;;;;1785394;80;21104;-85
2022/12/11 05:59:00;;;;;;;82.22;22.32;;;;;;;;;;1785735;79;20892;-85
2022/12/11 06:01:30;;;;;;;84.25;23.00;;;;;;;;;;1737032;80;21008;-86
2022/12/11 06:18:07;;;;;;;80.53;23.47;;;;;;;;;;1690758;81;21612;-85
2022/12/11 06:20:33;;;;;;;76.25;22.42;;;;;;;;;;1692469;83;21777;-85
2022/12/11 06:22:59;;;;;;;72.65;21.15;;;;;;;;;;1683680;82;21077;-85
2022/12/11 06:25:24;;;;;;;71.77;22.15;;;;;;;;;;1689271;82;20933;-86
2022/12/11 06:27:50;;;;;;;71.17;21.45;;;;;;;;;;1667472;81;20967;-85
2022/12/11 06:30:15;;;;;;;66.25;21.45;;;;;;;;;;1753856;80;21437;-86
2022/12/11 06:32:41;;;;;;;68.35;21.37;;;;;;;;;;1781894;78;20880;-86
2022/12/11 06:35:07;;;;;;;79.42;21.23;;;;;;;;;;1759280;80;21020;-85
2022/12/11 06:37:33;;;;;;;77.65;21.57;;;;;;;;;;1762352;78;20908;-86
2022/12/11 06:39:59;;;;;;;72.15;22.40;;;;;;;;;;1767478;80;21405;-85
2022/12/11 06:42:24;;;;;;;63.60;20.95;;;;;;;;;;1757243;80;20912;-86
2022/12/11 06:44:50;;;;;;;69.40;21.10;;;;;;;;;;1762179;78;21353;-85
2022/12/11 06:47:15;;;;;;;83.87;22.52;;;;;;;;;;1767832;80;20923;-85
2022/12/11 06:49:41;;;;;;;65.67;20.45;;;;;;;;;;1781352;79;20944;-86
2022/12/11 06:52:06;;;;;;;60.75;19.92;;;;;;;;;;1771855;78;21052;-85
2022/12/11 06:54:32;;;;;;;58.02;19.82;;;;;;;;;;1785887;79;20885;-85
2022/12/11 06:56:57;;;;;;;55.70;19.90;;;;;;;;;;1775595;80;20872;-85
2022/12/11 06:59:23;;;;;;;59.40;19.55;;;;;;;;;;1777181;79;20959;-85
2022/12/11 07:01:48;;;;;;;64.62;20.60;;;;;;;;;;1783445;78;20959;-89
2022/12/11 07:04:14;;;;;;;61.73;20.70;;;;;;;;;;1775598;80;20883;-86
2022/12/11 07:06:39;;;;;;;68.30;20.72;;;;;;;;;;1752386;80;20913;-86
2022/12/11 07:09:05;;;;;;;54.53;19.77;;;;;;;;;;1749257;81;21016;-85
2022/12/11 07:11:31;;;;;;;52.38;18.40;;;;;;;;;;1755393;80;20878;-86
2022/12/11 07:14:02;;;;;;;51.90;18.65;;;;;;;;;;1760099;79;20869;-85
2022/12/11 07:16:27;;;;;;;56.40;19.62;;;;;;;;;;1771314;79;21000;-85
2022/12/11 07:18:53;;;;;;;53.95;19.48;;;;;;;;;;1761772;79;20959;-86
2022/12/11 07:21:19;;;;;;;53.02;18.02;;;;;;;;;;1753297;81;20968;-86
2022/12/11 07:23:45;;;;;;;55.33;18.27;;;;;;;;;;1775713;80;20987;-86
2022/12/11 07:26:13;;;;;;;61.53;19.48;;;;;;;;;;1785907;80;20971;-86
2022/12/11 07:28:39;;;;;;;55.80;19.25;;;;;;;;;;1785596;80;20999;-85
2022/12/11 07:37:09;;;;;;;49.20;18.00;;;;;;;;;;1773840;79;21412;-85
2022/12/11 07:39:35;;;;;;;51.58;18.02;;;;;;;;;;1752848;81;20924;-86
2022/12/11 07:42:01;;;;;;;48.25;17.45;;;;;;;;;;1763751;78;20916;-86
2022/12/11 07:44:26;;;;;;;45.75;17.23;;;;;;;;;;1765722;78;21048;-85
2022/12/11 07:49:55;;;;;;;49.48;17.57;;;;;;;;;;1763249;80;21476;-86
2022/12/11 07:52:20;;;;;;;53.95;18.02;;;;;;;;;;1749993;80;21002;-86
2022/12/11 07:54:46;;;;;;;54.63;18.70;;;;;;;;;;1756064;80;21507;-85
2022/12/11 07:57:11;;;;;;;46.80;16.45;;;;;;;;;;1744855;80;20948;-86
2022/12/11 07:59:37;;;;;;;51.73;17.73;;;;;;;;;;1756158;80;20917;-85
2022/12/11 08:02:02;;;;;;;48.92;17.87;;;;;;;;;;1750060;81;21004;-86
2022/12/11 08:04:28;;;;;;;51.98;16.77;;;;;;;;;;1754973;81;20902;-85
2022/12/11 08:06:53;;;;;;;48.60;16.82;;;;;;;;;;1757690;79;20833;-86
2022/12/11 08:09:21;;;;;;;50.88;17.73;;;;;;;;;;1752301;80;20913;-86
2022/12/11 08:11:47;;;;;;;55.60;17.40;;;;;;;;;;1762043;80;21059;-86
2022/12/11 08:14:13;;;;;;;47.03;15.88;;;;;;;;;;1772174;78;21129;-86
2022/12/11 08:16:41;;;;;;;45.05;17.15;;;;;;;;;;1768828;79;20940;-85
2022/12/11 08:19:05;;;;;;;52.90;17.65;;;;;;;;;;1785260;78;21023;-85
2022/12/11 08:21:31;;;;;;;48.13;17.37;;;;;;;;;;1785718;79;21499;-86
2022/12/11 08:23:56;;;;;;;57.53;18.80;;;;;;;;;;1774622;78;20830;-86
2022/12/11 08:26:26;;;;;;;60.38;17.65;;;;;;;;;;1753645;80;21299;-85
2022/12/11 08:28:52;;;;;;;46.80;17.42;;;;;;;;;;1750509;80;21133;-86
2022/12/11 08:31:18;;;;;;;43.85;15.83;;;;;;;;;;1760789;79;21024;-85
2022/12/11 08:33:44;;;;;;;48.23;16.25;;;;;;;;;;1771219;79;20933;-85
2022/12/11 08:36:11;;;;;;;42.58;15.65;;;;;;;;;;1772194;78;22421;-85
2022/12/11 08:38:37;;;;;;;50.10;16.23;;;;;;;;;;1761501;80;21005;-85
2022/12/11 08:41:10;;;;;;;55.10;17.30;;;;;;;;;;1764501;80;21609;-86
2022/12/11 08:43:36;;;;;;;51.75;16.93;;;;;;;;;;1779874;79;21097;-85
2022/12/11 08:46:02;;;;;;;50.78;18.32;;;;;;;;;;1752804;80;20868;-86
2022/12/11 08:48:27;;;;;;;48.23;17.00;;;;;;;;;;1752943;80;21719;-85
2022/12/11 08:50:53;;;;;;;47.08;16.70;;;;;;;;;;1768390;78;21381;-86
2022/12/11 08:56:22;;;;;;;45.43;15.68;;;;;;;;;;1779971;79;20939;-85
2022/12/11 08:58:48;;;;;;;47.65;16.97;;;;;;;;;;1776656;78;21050;-85
2022/12/11 09:01:15;;;;;;;54.67;16.60;;;;;;;;;;1762497;79;22374;-86
2022/12/11 09:03:41;;;;;;;50.20;16.87;;;;;;;;;;1657948;83;21465;-85
2022/12/11 09:06:08;;;;;;;52.98;17.02;;;;;;;;;;1644851;84;21057;-85
2022/12/11 09:11:36;;;;;;;44.90;17.77;;;;;;;;;;1674898;83;21538;-84
2022/12/11 09:14:02;;;;;;;46.33;15.55;;;;;;;;;;1673138;84;21697;-85
2022/12/11 09:16:28;;;;;;;51.63;16.27;;;;;;;;;;1675900;85;21029;-84
2022/12/11 09:18:54;;;;;;;48.33;16.48;;;;;;;;;;1676214;83;21624;-84
2022/12/11 09:21:21;;;;;;;35.17;14.38;;;;;;;;;;1654062;84;21057;-84
2022/12/11 09:23:47;;;;;;;38.13;14.25;;;;;;;;;;1645500;85;21387;-83
2022/12/11 09:26:14;;;;;;;44.05;15.95;;;;;;;;;;1662857;83;22229;-84
2022/12/11 09:28:40;;;;;;;42.10;14.90;;;;;;;;;;1668104;84;21221;-84
2022/12/11 09:31:07;;;;;;;36.03;14.38;;;;;;;;;;1675350;83;21045;-84
2022/12/11 09:33:33;;;;;;;42.25;14.85;;;;;;;;;;1620246;86;21003;-84
2022/12/11 09:35:59;;;;;;;43.20;14.85;;;;;;;;;;1598831;87;21016;-83
2022/12/11 09:38:25;;;;;;;47.58;15.10;;;;;;;;;;1605528;86;21704;-84
2022/12/11 09:40:50;;;;;;;39.98;14.03;;;;;;;;;;1608831;86;21050;-83
2022/12/11 09:43:33;;;;;;;42.83;14.05;;;;;;;;;;1603439;88;21039;-83
2022/12/11 09:46:00;;;;;;;38.02;14.60;;;;;;;;;;1606693;86;21054;-84
2022/12/11 09:48:25;;;;;;;45.92;14.45;;;;;;;;;;1602643;86;21622;-84
2022/12/11 09:50:53;;;;;;;44.05;14.38;;;;;;;;;;1605361;86;20997;-83
2022/12/11 09:53:23;;;;;;;39.98;13.68;;;;;;;;;;1621053;85;21184;-84
2022/12/11 09:56:05;;;;;;;42.35;14.10;;;;;;;;;;1620492;87;21003;-84
2022/12/11 09:58:38;;;;;;;40.40;13.45;;;;;;;;;;1610718;87;21071;-84
2022/12/11 10:01:22;;;;;;;36.38;14.25;;;;;;;;;;1651665;84;21149;-84
2022/12/11 10:07:09;;;;;;;47.10;14.43;;;;;;;;;;1671214;83;21550;-84
2022/12/11 10:09:39;;;;;;;32.55;12.68;;;;;;;;;;1659933;84;21129;-83
2022/12/11 10:12:09;;;;;;;40.03;14.93;;;;;;;;;;1673285;84;21389;-84
2022/12/11 10:14:39;;;;;;;41.73;15.03;;;;;;;;;;1663945;84;21094;-84
2022/12/11 10:19:56;;;;;;;36.05;14.15;;;;;;;;;;1666800;84;21117;-84
2022/12/11 10:22:23;;;;;;;33.95;13.20;;;;;;;;;;1650091;85;21570;-86
2022/12/11 10:27:52;;;;;;;39.00;12.23;;;;;;;;;;1662769;85;20957;-85
2022/12/11 10:30:19;;;;;;;35.38;12.82;;;;;;;;;;1668296;83;20936;-86
2022/12/11 10:32:58;;;;;;;35.60;13.03;;;;;;;;;;1650376;83;21459;-89
2022/12/11 10:35:28;;;;;;;31.60;11.88;;;;;;;;;;1682688;83;21117;-86
2022/12/11 10:40:58;;;;;;;34.78;12.73;;;;;;;;;;1751708;78;21071;-85
2022/12/11 10:43:34;;;;;;;38.30;13.18;;;;;;;;;;1737328;80;21638;-84
2022/12/11 10:46:00;;;;;;;32.28;12.88;;;;;;;;;;1741276;79;21070;-84
2022/12/11 10:48:25;;;;;;;39.18;12.28;;;;;;;;;;1737097;80;20947;-84
2022/12/11 10:50:55;;;;;;;32.58;11.05;;;;;;;;;;1737721;80;21385;-85
2022/12/11 10:53:21;;;;;;;29.85;11.90;;;;;;;;;;1741863;78;21106;-84
2022/12/11 10:55:48;;;;;;;27.98;11.60;;;;;;;;;;1760915;79;21712;-85
2022/12/11 10:58:18;;;;;;;30.43;11.20;;;;;;;;;;1754446;78;20923;-85
2022/12/11 11:03:54;;;;;;;31.23;10.93;;;;;;;;;;1753196;80;20876;-84
2022/12/11 11:06:19;;;;;;;;;;;;;;;;;;1759224;78;21508;-85
2022/12/11 11:08:46;;;;;;;31.37;11.30;;;;;;;;;;1770802;79;20135;-84
2022/12/11 11:14:19;;;;;;;30.90;10.32;;;;;;;;;;1738788;79;21027;-84
2022/12/11 11:16:45;;;;;;;32.40;11.15;;;;;;;;;;1752409;78;20991;-85
2022/12/11 11:25:18;;;;;;;31.05;12.18;;;;;;;;;;1760914;79;21078;-84
2022/12/11 11:27:54;;;;;;;34.60;12.28;;;;;;;;;;1745694;78;21102;-84
2022/12/11 11:30:22;;;;;;;31.50;10.98;;;;;;;;;;1745045;80;21046;-85
2022/12/11 11:32:49;;;;;;;27.37;10.28;;;;;;;;;;1749315;80;21472;-85
2022/12/11 11:35:17;;;;;;;27.02;10.08;;;;;;;;;;1750534;80;21701;-85
2022/12/11 11:37:47;;;;;;;33.50;10.63;;;;;;;;;;1740881;80;20984;-85
2022/12/11 11:40:20;;;;;;;26.62;10.48;;;;;;;;;;1738309;80;21035;-84
2022/12/11 11:42:48;;;;;;;31.57;10.40;;;;;;;;;;1736109;81;21024;-85
2022/12/11 11:45:15;;;;;;;25.32;10.00;;;;;;;;;;1736098;80;20992;-84
2022/12/11 11:47:42;;;;;;;26.77;10.82;;;;;;;;;;1745377;80;21650;-84
2022/12/11 11:50:16;;;;;;;23.18;9.68;;;;;;;;;;1744524;79;21054;-84
2022/12/11 11:52:43;;;;;;;;;;;;;;;;;;1745798;80;21048;-84
2022/12/11 11:55:10;;;;;;;22.85;9.93;;;;;;;;;;1738509;82;20812;-85
2022/12/11 11:57:46;;;;;;;28.00;9.65;;;;;;;;;;1747766;80;21082;-84
2022/12/11 12:06:28;;;;;;;23.15;9.38;;;;;;;;;;1707722;82;21179;-84
2022/12/11 12:08:55;;;;;;;26.95;9.83;;;;;;;;;;1711449;81;21557;-85
2022/12/11 12:11:29;;;;;;;30.25;10.53;;;;;;;;;;1700369;82;21504;-85
2022/12/11 12:13:56;;;;;;;27.25;9.15;;;;;;;;;;1720191;80;21799;-84
2022/12/11 12:16:26;;;;;;;20.50;9.15;;;;;;;;;;1643630;86;21563;-84
2022/12/11 12:19:00;;;;;;;24.70;9.35;;;;;;;;;;1641138;86;21069;-84
2022/12/11 12:21:31;;;;;;;23.90;9.55;;;;;;;;;;1648753;85;21057;-84
2022/12/11 12:24:10;;;;;;;24.52;8.35;;;;;;;;;;1658151;85;20959;-84
2022/12/11 12:26:37;;;;;;;24.80;8.75;;;;;;;;;;1627524;87;21590;-84
2022/12/11 12:29:05;;;;;;;26.33;8.80;;;;;;;;;;1626938;87;21140;-84
2022/12/11 12:31:50;;;;;;;23.80;9.78;;;;;;;;;;1610103;87;21110;-84
2022/12/11 12:34:24;;;;;;;21.60;9.48;;;;;;;;;;1617350;87;21677;-84
2022/12/11 12:36:59;;;;;;;25.12;8.75;;;;;;;;;;1598308;88;21058;-84
2022/12/11 12:39:43;;;;;;;31.55;9.33;;;;;;;;;;1608206;87;21815;-85
2022/12/11 12:42:10;;;;;;;25.60;9.38;;;;;;;;;;1613556;87;20982;-84
2022/12/11 12:44:38;;;;;;;26.75;9.18;;;;;;;;;;1603375;87;21035;-84
2022/12/11 12:47:05;;;;;;;28.20;8.55;;;;;;;;;;1595880;87;21107;-83
2022/12/11 12:49:36;;;;;;;28.92;8.93;;;;;;;;;;1594776;88;21202;-84
2022/12/11 12:52:02;;;;;;;23.73;9.28;;;;;;;;;;1592366;87;22500;-84
2022/12/11 12:54:29;;;;;;;24.70;9.98;;;;;;;;;;1611743;88;21173;-84
2022/12/11 12:56:56;;;;;;;30.00;9.00;;;;;;;;;;1628595;85;21628;-84
2022/12/11 12:59:22;;;;;;;26.10;10.23;;;;;;;;;;1649988;84;21134;-84
2022/12/11 13:01:51;;;;;;;25.27;10.10;;;;;;;;;;1635657;85;21154;-84
2022/12/11 13:04:30;;;;;;;24.85;9.20;;;;;;;;;;1600652;87;21927;-84
2022/12/11 13:06:55;;;;;;;29.10;9.53;;;;;;;;;;1591210;88;21144;-84
2022/12/11 13:09:22;;;;;;;25.88;9.43;;;;;;;;;;1583115;88;21010;-84
2022/12/11 13:11:52;;;;;;;23.55;8.30;;;;;;;;;;1593016;88;21536;-84
2022/12/11 13:14:19;;;;;;;23.75;9.03;;;;;;;;;;1664909;84;21066;-84
2022/12/11 13:16:47;;;;;;;25.75;9.63;;;;;;;;;;1692628;84;22551;-84
2022/12/11 13:19:26;;;;;;;21.75;8.95;;;;;;;;;;1665409;84;21024;-83
2022/12/11 13:22:05;;;;;;;22.07;8.53;;;;;;;;;;1663598;85;21000;-84
2022/12/11 16:39:12;;;;;;;33.48;11.18;;;;;;;8.32;100.00;99997.69;1837759;76;26284;-85
2022/12/11 16:41:38;;;;;;;32.98;11.48;;;;;;;8.83;100.00;99999.34;1785005;78;21075;-85
2022/12/11 16:44:05;;;;;;;33.92;10.68;;;;;;;9.05;100.00;99993.22;1776069;78;22618;-85
2022/12/11 16:46:31;;;;;;;28.83;10.72;;;;;;;9.18;100.00;99994.62;1758483;79;21079;-85
2022/12/11 16:48:57;;;;;;;26.12;10.55;;;;;;;9.32;100.00;99989.00;1803759;77;21064;-85
2022/12/11 16:51:23;;;;;;;24.25;9.63;;;;;;;9.42;100.00;99996.81;1798794;78;21098;-85
2022/12/11 16:53:50;;;;;;;23.95;10.35;;;;;;;9.52;100.00;99990.09;1803065;77;21069;-85
2022/12/11 16:56:16;;;;;;;32.75;10.70;;;;;;;9.59;100.00;99981.23;1784924;78;21922;-85
2022/12/11 16:58:42;;;;;;;24.90;10.20;;;;;;;9.63;100.00;99978.27;1783615;79;20981;-85
2022/12/11 17:01:11;;;;;;;24.30;9.00;;;;;;;9.60;100.00;99978.00;1734885;82;21484;-85
2022/12/11 17:03:38;;;;;;;31.07;10.70;;;;;;;9.67;100.00;99978.53;1731030;82;21159;-85
2022/12/11 17:06:11;;;;;;;29.50;10.78;;;;;;;9.74;100.00;99972.36;1699600;82;21007;-85
2022/12/11 17:08:38;;;;;;;28.87;10.78;;;;;;;9.77;100.00;99973.97;1738540;82;21155;-85
2022/12/11 17:11:06;;;;;;;27.10;10.15;;;;;;;9.78;100.00;99969.39;1727856;81;21631;-85
2022/12/11 17:13:33;;;;;;;28.67;10.08;;;;;;;9.80;100.00;99967.24;1737397;81;21039;-86
2022/12/11 17:16:05;;;;;;;30.55;11.28;;;;;;;9.73;100.00;99959.42;1687931;82;21043;-85
2022/12/11 17:18:31;;;;;;;30.02;11.35;;;;;;;9.77;100.00;99953.78;1724941;82;21020;-85
2022/12/11 17:20:58;;;;;;;27.58;10.50;;;;;;;9.83;100.00;99942.48;1724010;82;21149;-85
2022/12/11 17:23:25;;;;;;;27.13;10.58;;;;;;;9.87;100.00;99945.44;1724249;82;21036;-86
2022/12/11 17:25:51;;;;;;;27.87;10.60;;;;;;;9.83;100.00;99941.14;1763648;79;20971;-86
2022/12/11 17:28:17;;;;;;;27.05;10.60;;;;;;;9.82;100.00;99941.39;1790353;79;21141;-86
2022/12/11 17:30:44;;;;;;;30.72;10.05;;;;;;;9.72;100.00;99942.22;1770536;79;21473;-86
2022/12/11 17:33:11;;;;;;;25.70;10.15;;;;;;;9.74;100.00;99949.48;1766701;79;21217;-86
2022/12/11 17:35:37;;;;;;;28.95;10.78;;;;;;;9.70;100.00;99949.74;1769845;79;22251;-86
2022/12/11 17:38:04;;;;;;;31.75;10.35;;;;;;;9.69;100.00;99945.45;1807965;77;21094;-86
2022/12/11 17:40:30;;;;;;;29.57;11.05;;;;;;;9.70;100.00;99944.36;1800473;77;21520;-86
2022/12/11 17:42:56;;;;;;;35.73;11.40;;;;;;;9.64;100.00;99935.48;1801807;77;21601;-86
2022/12/11 17:45:23;;;;;;;27.58;10.50;;;;;;;9.59;100.00;99928.78;1787726;79;21270;-86
2022/12/11 17:47:49;;;;;;;26.62;9.55;;;;;;;9.47;100.00;99925.53;1784376;78;21484;-87
2022/12/11 17:50:15;;;;;;;32.05;10.53;;;;;;;9.39;100.00;99925.55;1772067;79;20945;-85
2022/12/11 17:52:41;;;;;;;27.52;10.53;;;;;;;9.32;100.00;99923.13;1776523;79;21075;-86
2022/12/11 17:55:08;;;;;;;26.27;10.35;;;;;;;9.31;100.00;99923.38;1784820;79;21579;-86
2022/12/11 17:57:36;;;;;;;26.05;10.80;;;;;;;9.34;100.00;99922.84;1788121;78;21953;-86
2022/12/11 18:00:04;;;;;;;28.25;10.88;;;;;;;9.38;100.00;99923.91;1788717;79;21484;-86
2022/12/11 18:02:30;;;;;;;38.15;11.68;;;;;;;9.47;100.00;99916.95;1788223;78;21018;-86
2022/12/11 18:04:56;;;;;;;25.35;9.38;;;;;;;9.52;100.00;99906.70;1773083;77;21000;-85
2022/12/11 18:07:24;;;;;;;32.28;11.18;;;;;;;9.55;100.00;99906.97;1790357;78;21504;-86
2022/12/11 18:09:50;;;;;;;28.10;10.28;;;;;;;9.62;100.00;99907.23;1787767;78;21264;-86
2022/12/11 18:12:16;;;;;;;27.98;10.50;;;;;;;9.66;100.00;99920.43;1796009;77;21101;-86
2022/12/11 18:14:42;;;;;;;30.90;10.13;;;;;;;9.62;100.00;99897.81;1787928;78;21062;-85
2022/12/11 18:17:08;;;;;;;30.92;10.43;;;;;;;9.67;100.00;99908.58;1788026;78;21150;-86
2022/12/11 18:19:34;;;;;;;31.90;11.22;;;;;;;9.69;100.00;99907.78;1773843;79;20960;-85
2022/12/11 18:22:00;;;;;;;33.55;10.55;;;;;;;9.72;100.00;99916.11;1768575;78;21676;-86
2022/12/11 18:24:30;;;;;;;37.67;11.25;;;;;;;9.76;100.00;99909.64;1788271;77;21006;-86
2022/12/11 18:26:54;;;;;;;32.75;11.48;;;;;;;9.78;100.00;99922.30;1785987;78;21077;-86